Hanlontown, IA (50444)

10:55 AM CST on February 09, 2016 (GMT -0600)
Bruns Bros. Farms | | Change Station
CLOSE
Current Station
Personal Weather Station
Location: Hanlontown, IA
Elevation: 1207 ft
Nearby Weather Stations

Elev 1207 ft 43.27 °N, 93.41 °W | Updated 42 seconds ago

Mostly Cloudy
Mostly Cloudy
7.9 °F
Feels Like -12 °F
N
22.2
Wind Variable Wind from WNW

Today
High -- | Low -- °F
--% Chance of Precip.
Yesterday
High -- | Low -- °F
Precip. -- in
Pressure 30.08 in
Visibility 4.0 miles
Clouds Overcast 1100 ft
Windchill -12 °F
Dew Point 4 °F
Humidity 84%
Rainfall 0.00 in
Snow Depth Not available.
7:20 AM 5:35 PM
New Moon, 2% visible
SPECI KMCW 091601Z AUTO 33024KT 4SM BLSN OVC011 M14/M17 A3008 RMK AO2 PK WND 33029/1557 T11391172
Pressure 30.08 in
Visibility 4.0 miles
Clouds Overcast 1100 ft
Windchill -12 °F
Dew Point 4 °F
Humidity 84%
Rainfall 0.00 in
Snow Depth Not available.
7:20 AM 5:35 PM
New Moon, 2% visible
SPECI KMCW 091601Z AUTO 33024KT 4SM BLSN OVC011 M14/M17 A3008 RMK AO2 PK WND 33029/1557 T11391172

10-Day Weather Forecast

Almanac

Astronomy

Feb. 09, 2016 Rise Set
Actual Time
Civil Twilight
Nautical Twilight
Astronomical Twilight
Moon
Length of Visible Light
Length of Day
Tomorrow will be .
, % of the Moon is Illuminated

Today's Extremes

State Highs State Lows

Community

WunderPhotos

Upload Photos

1,891,631 photos uploaded!

WunderBlog® & News

Nearby

Air Quality

  Air Quality AQ Index Pollutant
Not available.

Snow Depth

Station Depth Elevation

Earthquake Activity

City Distance Mag. Time & Date
Minimum magnitude displayed is 2.5.

Coastal Water Temperatures

Place Temperature

Stations

Nearby Weather Stations

Station Location Temp. Windchill Dew Point Humidity Wind Precip. Elev Updated Type
                   

Watches & Warnings

There are currently no watches in effect.